createdAt,value
2018-06-15T00:00:06.271Z,17.60
2018-06-15T00:02:35.139Z,17.60
2018-06-15T00:05:03.279Z,17.60
2018-06-15T00:07:31.367Z,17.60
2018-06-15T00:10:00.040Z,17.60
2018-06-15T00:12:28.155Z,17.50
2018-06-15T00:14:56.225Z,17.50
2018-06-15T00:17:24.346Z,17.50
2018-06-15T00:19:52.509Z,17.50
2018-06-15T00:22:20.694Z,17.50
2018-06-15T00:24:48.777Z,17.50
2018-06-15T00:27:16.861Z,17.50
2018-06-15T00:29:45.957Z,17.50
2018-06-15T00:32:14.050Z,17.50
2018-06-15T00:34:42.134Z,17.50
2018-06-15T00:37:10.221Z,17.50
2018-06-15T00:39:38.303Z,17.50
2018-06-15T00:42:06.395Z,17.50
2018-06-15T00:44:34.465Z,17.50
2018-06-15T00:47:02.568Z,17.50
2018-06-15T00:49:30.734Z,17.50
2018-06-15T00:51:58.826Z,17.40
2018-06-15T00:54:26.917Z,17.40
2018-06-15T00:57:06.374Z,17.40
2018-06-15T00:59:34.445Z,17.40
2018-06-15T01:02:02.529Z,17.40
2018-06-15T01:04:30.626Z,17.40
2018-06-15T01:06:58.700Z,17.30
2018-06-15T01:09:26.790Z,17.30
2018-06-15T01:11:54.866Z,17.30
2018-06-15T01:14:23.165Z,17.30
2018-06-15T01:16:51.235Z,17.20
2018-06-15T01:19:19.346Z,17.20
2018-06-15T01:21:47.509Z,17.20
2018-06-15T01:24:15.602Z,17.20
2018-06-15T01:29:11.677Z,17.20
2018-06-15T01:31:39.862Z,17.20
2018-06-15T01:34:08.070Z,17.20
2018-06-15T01:36:36.245Z,17.20
2018-06-15T01:39:06.754Z,17.20
2018-06-15T01:41:35.138Z,17.20
2018-06-15T01:44:03.277Z,17.10
2018-06-15T01:46:31.430Z,17.10
2018-06-15T01:51:28.334Z,17.10
2018-06-15T01:53:56.505Z,17.10
2018-06-15T01:56:24.595Z,17.10
2018-06-15T01:58:52.818Z,17.10
2018-06-15T02:01:21.064Z,17.10
2018-06-15T02:03:49.062Z,17.10
2018-06-15T02:06:17.226Z,17.20
2018-06-15T02:08:45.337Z,17.20
2018-06-15T02:11:13.507Z,17.20
2018-06-15T02:13:41.594Z,17.20
2018-06-15T02:16:09.702Z,17.20
2018-06-15T02:18:37.888Z,17.10
2018-06-15T02:21:06.078Z,17.10
2018-06-15T02:23:34.270Z,17.10
2018-06-15T02:26:02.458Z,17.10
2018-06-15T02:28:30.647Z,17.10
2018-06-15T02:30:58.854Z,17.10
2018-06-15T02:33:27.022Z,17.10
2018-06-15T02:35:55.174Z,17.10
2018-06-15T02:38:23.279Z,17.10
2018-06-15T02:40:51.446Z,17.10
2018-06-15T02:43:19.518Z,17.10
2018-06-15T02:48:15.622Z,17.00
2018-06-15T02:50:43.782Z,17.00
2018-06-15T02:55:39.850Z,17.00
2018-06-15T02:58:07.933Z,17.00
2018-06-15T03:00:36.018Z,17.00
2018-06-15T03:03:04.122Z,17.00
2018-06-15T03:05:32.290Z,17.00
2018-06-15T03:08:00.369Z,17.00
2018-06-15T03:10:28.468Z,17.00
2018-06-15T03:12:56.537Z,17.00
2018-06-15T03:15:24.654Z,17.00
2018-06-15T03:17:52.801Z,16.90
2018-06-15T03:20:20.894Z,16.90
2018-06-15T03:25:16.964Z,16.90
2018-06-15T03:27:45.054Z,16.90
2018-06-15T03:30:13.138Z,16.90
2018-06-15T03:32:41.218Z,16.90
2018-06-15T03:35:09.410Z,16.90
2018-06-15T03:37:37.614Z,16.90
2018-06-15T03:40:05.673Z,16.90
2018-06-15T03:42:33.749Z,16.90
2018-06-15T03:45:01.842Z,16.90
2018-06-15T03:47:30.841Z,16.90
2018-06-15T03:49:58.942Z,16.90
2018-06-15T03:52:27.118Z,16.90
2018-06-15T03:54:55.210Z,16.90
2018-06-15T03:57:23.286Z,16.90
2018-06-15T03:59:51.413Z,16.90
2018-06-15T04:02:19.555Z,16.90
2018-06-15T04:04:47.790Z,16.90
2018-06-15T04:07:15.926Z,16.90
2018-06-15T04:09:45.055Z,16.90
2018-06-15T04:12:13.237Z,16.90
2018-06-15T04:17:09.391Z,17.00
2018-06-15T04:22:05.457Z,17.00
2018-06-15T04:24:33.546Z,17.00
2018-06-15T04:27:01.734Z,17.10
2018-06-15T04:29:29.966Z,17.10
2018-06-15T04:31:58.111Z,17.10
2018-06-15T04:34:26.337Z,17.10
2018-06-15T04:36:54.511Z,17.20
2018-06-15T04:39:22.698Z,17.20
2018-06-15T04:41:50.882Z,17.20
2018-06-15T04:44:19.078Z,17.20
2018-06-15T04:46:47.260Z,17.30
2018-06-15T04:49:15.442Z,17.30
2018-06-15T04:51:43.634Z,17.30
2018-06-15T04:54:11.810Z,17.30
2018-06-15T04:56:49.110Z,17.40
2018-06-15T04:59:17.206Z,17.40
2018-06-15T05:01:45.410Z,17.40
2018-06-15T05:04:13.596Z,17.40
2018-06-15T05:06:41.766Z,17.40
2018-06-15T05:09:10.688Z,17.50
2018-06-15T05:11:39.074Z,17.50
2018-06-15T05:14:07.241Z,17.50
2018-06-15T05:16:35.367Z,17.50
2018-06-15T05:19:03.732Z,17.50
2018-06-15T05:21:31.926Z,17.50
2018-06-15T05:24:00.098Z,17.50
2018-06-15T05:26:28.289Z,17.50
2018-06-15T05:28:56.781Z,17.60
2018-06-15T05:31:24.973Z,17.60
2018-06-15T05:33:53.042Z,17.60
2018-06-15T05:36:21.206Z,17.70
2018-06-15T05:38:49.295Z,17.70
2018-06-15T05:41:17.379Z,17.80
2018-06-15T05:43:45.450Z,17.80
2018-06-15T05:46:13.550Z,17.80
2018-06-15T05:48:41.626Z,17.90
2018-06-15T05:51:09.730Z,17.90
2018-06-15T05:53:37.901Z,17.90
2018-06-15T05:56:05.999Z,17.90
2018-06-15T05:58:34.177Z,18.00
2018-06-15T06:01:02.263Z,18.00
2018-06-15T06:03:30.350Z,18.10
2018-06-15T06:05:58.430Z,18.10
2018-06-15T06:08:26.502Z,18.10
2018-06-15T06:10:54.602Z,18.20
2018-06-15T06:13:22.773Z,18.20
2018-06-15T06:15:50.870Z,18.20
2018-06-15T06:18:18.949Z,18.20
2018-06-15T06:20:47.038Z,18.20
2018-06-15T06:23:15.121Z,18.40
2018-06-15T06:25:43.214Z,18.50
2018-06-15T06:28:11.386Z,18.70
2018-06-15T06:30:39.481Z,18.70
2018-06-15T06:33:09.506Z,18.80
2018-06-15T06:38:05.594Z,18.90
2018-06-15T06:40:33.902Z,18.90
2018-06-15T06:43:02.074Z,19.00
2018-06-15T06:45:30.270Z,19.00
2018-06-15T06:47:58.454Z,19.00
2018-06-15T06:50:26.639Z,19.10
2018-06-15T06:52:54.817Z,19.20
2018-06-15T06:55:23.030Z,19.20
2018-06-15T06:57:51.189Z,19.30
2018-06-15T07:00:19.378Z,19.40
2018-06-15T07:02:47.573Z,19.50
2018-06-15T07:05:16.070Z,19.50
2018-06-15T07:07:44.258Z,19.50
2018-06-15T07:10:12.542Z,19.60
2018-06-15T07:12:40.734Z,19.60
2018-06-15T07:15:08.918Z,19.70
2018-06-15T07:17:37.106Z,19.80
2018-06-15T07:20:05.381Z,19.80
2018-06-15T07:22:33.479Z,19.80
2018-06-15T07:25:01.662Z,19.80
2018-06-15T07:27:29.854Z,19.90
2018-06-15T07:29:58.034Z,20.00
2018-06-15T07:32:26.226Z,20.00
2018-06-15T07:34:54.382Z,20.10
2018-06-15T07:37:22.466Z,19.90
2018-06-15T07:39:50.554Z,19.80
2018-06-15T07:42:18.642Z,19.70
2018-06-15T07:44:46.742Z,19.70
2018-06-15T07:47:14.909Z,19.70
2018-06-15T07:49:44.010Z,19.70
2018-06-15T07:52:12.097Z,19.80
2018-06-15T07:54:40.174Z,19.80
2018-06-15T07:57:08.279Z,19.80
2018-06-15T07:59:36.404Z,19.90
2018-06-15T08:02:04.426Z,20.00
2018-06-15T08:04:32.519Z,20.10
2018-06-15T08:07:00.614Z,20.10
2018-06-15T08:09:28.682Z,20.10
2018-06-15T08:14:24.770Z,20.10
2018-06-15T08:16:52.946Z,20.10
2018-06-15T08:19:21.018Z,20.20
2018-06-15T08:21:49.123Z,20.30
2018-06-15T08:24:17.286Z,20.30
2018-06-15T08:26:45.419Z,20.30
2018-06-15T08:29:13.561Z,20.40
2018-06-15T08:31:41.666Z,20.50
2018-06-15T08:34:09.833Z,20.50
2018-06-15T08:36:37.908Z,20.60
2018-06-15T08:39:08.653Z,20.70
2018-06-15T08:41:36.889Z,20.80
2018-06-15T08:44:05.050Z,21.00
2018-06-15T08:46:33.135Z,21.00
2018-06-15T08:49:01.198Z,21.20
2018-06-15T08:51:29.298Z,21.30
2018-06-15T08:56:25.366Z,21.50
2018-06-15T09:01:21.282Z,21.70
2018-06-15T09:03:49.405Z,21.70
2018-06-15T09:06:17.494Z,21.80
2018-06-15T09:08:45.602Z,22.00
2018-06-15T09:11:13.770Z,22.00
2018-06-15T09:16:09.826Z,22.10
2018-06-15T09:18:37.925Z,22.20
2018-06-15T09:21:06.004Z,22.40
2018-06-15T09:23:34.109Z,22.50
2018-06-15T09:26:02.275Z,22.70
2018-06-15T09:30:58.339Z,22.80
2018-06-15T09:33:26.459Z,22.70
2018-06-15T09:35:54.642Z,22.70
2018-06-15T09:38:22.831Z,22.70
2018-06-15T09:40:51.011Z,22.60
2018-06-15T09:43:19.221Z,22.60
2018-06-15T09:45:47.359Z,22.50
2018-06-15T09:48:15.486Z,22.40
2018-06-15T09:50:43.690Z,22.40
2018-06-15T09:53:11.856Z,22.50
2018-06-15T09:55:40.030Z,22.50
2018-06-15T09:58:08.242Z,22.40
2018-06-15T10:00:41.825Z,22.30
2018-06-15T10:03:09.921Z,22.20
2018-06-15T10:05:38.102Z,22.20
2018-06-15T10:08:06.509Z,22.20
2018-06-15T10:10:34.686Z,22.10
2018-06-15T10:13:02.874Z,22.00
2018-06-15T10:15:31.070Z,21.90
2018-06-15T10:17:59.250Z,21.80
2018-06-15T10:20:27.439Z,21.80
2018-06-15T10:22:55.626Z,21.70
2018-06-15T10:25:23.805Z,21.60
2018-06-15T10:27:52.006Z,21.60
2018-06-15T10:30:20.182Z,21.50
2018-06-15T10:32:48.373Z,21.60
2018-06-15T10:35:16.522Z,21.60
2018-06-15T10:37:44.608Z,21.70
2018-06-15T10:40:12.690Z,21.70
2018-06-15T10:42:40.922Z,21.60
2018-06-15T10:45:09.077Z,21.70
2018-06-15T10:47:37.154Z,21.70
2018-06-15T10:50:05.246Z,21.70
2018-06-15T10:52:33.329Z,21.80
2018-06-15T10:55:01.423Z,21.90
2018-06-15T10:57:29.602Z,22.10
2018-06-15T10:59:57.811Z,22.20
2018-06-15T11:02:26.119Z,22.30
2018-06-15T11:04:54.187Z,22.30
2018-06-15T11:07:22.341Z,22.40
2018-06-15T11:09:50.417Z,22.40
2018-06-15T11:12:18.550Z,22.50
2018-06-15T11:14:46.706Z,22.60
2018-06-15T11:17:14.769Z,22.60
2018-06-15T11:22:11.862Z,22.60
2018-06-15T11:24:40.202Z,22.60
2018-06-15T11:27:08.263Z,22.60
2018-06-15T11:29:36.430Z,22.60
2018-06-15T11:32:04.507Z,22.70
2018-06-15T11:37:00.818Z,22.70
2018-06-15T11:39:29.221Z,22.70
2018-06-15T11:41:57.402Z,22.70
2018-06-15T11:44:25.603Z,22.70
2018-06-15T11:46:54.143Z,22.70
2018-06-15T11:51:50.446Z,22.70
2018-06-15T11:54:18.639Z,22.60
2018-06-15T11:56:46.814Z,22.60
2018-06-15T11:59:15.006Z,22.70
2018-06-15T12:01:43.256Z,22.70
2018-06-15T12:04:11.423Z,22.70
2018-06-15T12:06:39.578Z,22.70
2018-06-15T12:09:09.022Z,22.80
2018-06-15T12:11:37.196Z,22.90
2018-06-15T12:14:05.673Z,23.00
2018-06-15T12:16:33.897Z,23.10
2018-06-15T12:19:02.039Z,23.20
2018-06-15T12:21:30.254Z,23.20
2018-06-15T12:23:58.433Z,23.20
2018-06-15T12:26:26.875Z,23.20
2018-06-15T12:28:55.003Z,23.20
2018-06-15T12:31:23.181Z,23.30
2018-06-15T12:33:51.387Z,23.30
2018-06-15T12:36:19.550Z,23.40
2018-06-15T12:38:47.715Z,23.50
2018-06-15T12:41:15.789Z,23.50
2018-06-15T12:43:44.027Z,23.60
2018-06-15T12:46:12.186Z,23.70
2018-06-15T12:48:40.384Z,23.90
2018-06-15T12:51:08.580Z,24.00
2018-06-15T12:53:36.798Z,24.10
2018-06-15T12:56:05.003Z,24.20
2018-06-15T12:58:33.125Z,24.20
2018-06-15T13:01:01.582Z,24.30
2018-06-15T13:03:29.691Z,24.50
2018-06-15T13:05:57.777Z,24.60
2018-06-15T13:08:25.862Z,24.50
2018-06-15T13:10:54.070Z,24.50
2018-06-15T13:13:22.254Z,24.60
2018-06-15T13:15:50.430Z,24.70
2018-06-15T13:18:18.690Z,24.80
2018-06-15T13:23:14.814Z,24.90
2018-06-15T13:25:42.898Z,24.90
2018-06-15T13:28:11.034Z,24.80
2018-06-15T13:30:39.374Z,24.60
2018-06-15T13:33:07.440Z,24.60
2018-06-15T13:35:35.637Z,24.50
2018-06-15T13:38:03.818Z,24.50
2018-06-15T13:40:31.998Z,24.50
2018-06-15T13:43:00.177Z,24.40
2018-06-15T13:45:28.374Z,24.30
2018-06-15T13:47:56.555Z,24.20
2018-06-15T13:50:24.753Z,24.20
2018-06-15T13:52:52.934Z,24.20
2018-06-15T13:55:21.127Z,24.30
2018-06-15T13:57:49.341Z,24.30
2018-06-15T14:00:17.593Z,24.20
2018-06-15T14:02:45.682Z,24.20
2018-06-15T14:05:13.787Z,24.20
2018-06-15T14:07:41.950Z,24.20
2018-06-15T14:10:10.154Z,24.10
2018-06-15T14:12:38.319Z,24.20
2018-06-15T14:15:06.542Z,24.20
2018-06-15T14:17:34.736Z,24.20
2018-06-15T14:20:02.894Z,24.30
2018-06-15T14:22:31.069Z,24.30
2018-06-15T14:24:59.285Z,24.30
2018-06-15T14:27:27.466Z,24.30
2018-06-15T14:29:55.666Z,24.40
2018-06-15T14:32:23.788Z,24.40
2018-06-15T14:34:51.906Z,24.50
2018-06-15T14:37:20.082Z,24.50
2018-06-15T14:39:48.277Z,24.50
2018-06-15T14:42:16.466Z,24.50
2018-06-15T14:44:44.653Z,24.40
2018-06-15T14:47:12.844Z,24.30
2018-06-15T14:49:41.042Z,24.20
2018-06-15T14:52:09.210Z,24.10
2018-06-15T14:54:37.402Z,24.10
2018-06-15T14:57:05.583Z,24.00
2018-06-15T14:59:33.802Z,23.90
2018-06-15T15:02:01.966Z,23.90
2018-06-15T15:04:30.150Z,23.90
2018-06-15T15:06:58.351Z,23.90
2018-06-15T15:09:26.822Z,23.90
2018-06-15T15:11:55.015Z,24.00
2018-06-15T15:14:23.203Z,24.00
2018-06-15T15:16:51.325Z,24.00
2018-06-15T15:19:19.588Z,24.00
2018-06-15T15:21:47.667Z,24.20
2018-06-15T15:24:15.852Z,24.20
2018-06-15T15:26:44.035Z,24.30
2018-06-15T15:29:12.230Z,24.40
2018-06-15T15:31:40.414Z,24.50
2018-06-15T15:34:08.595Z,24.50
2018-06-15T15:36:36.780Z,24.70
2018-06-15T15:39:07.486Z,24.70
2018-06-15T15:41:35.620Z,24.70
2018-06-15T15:44:03.869Z,24.80
2018-06-15T15:46:32.087Z,24.90
2018-06-15T15:49:00.275Z,25.00
2018-06-15T15:51:28.638Z,25.20
2018-06-15T15:53:56.750Z,25.20
2018-06-15T15:56:24.981Z,25.00
2018-06-15T15:58:53.123Z,24.90
2018-06-15T16:01:21.313Z,24.70
2018-06-15T16:03:49.412Z,24.60
2018-06-15T16:06:17.590Z,24.50
2018-06-15T16:08:45.778Z,24.40
2018-06-15T16:11:13.953Z,24.30
2018-06-15T16:13:42.138Z,24.20
2018-06-15T16:16:10.446Z,24.20
2018-06-15T16:18:38.665Z,24.10
2018-06-15T16:21:06.822Z,24.10
2018-06-15T16:23:35.005Z,24.00
2018-06-15T16:26:03.186Z,23.90
2018-06-15T16:28:31.358Z,23.90
2018-06-15T16:30:59.567Z,23.90
2018-06-15T16:33:27.745Z,23.90
2018-06-15T16:35:55.946Z,23.80
2018-06-15T16:38:24.226Z,23.70
2018-06-15T16:40:52.410Z,23.70
2018-06-15T16:43:20.602Z,23.60
2018-06-15T16:45:48.782Z,23.50
2018-06-15T16:48:16.949Z,23.40
2018-06-15T16:50:45.153Z,23.40
2018-06-15T16:53:13.330Z,23.30
2018-06-15T16:55:41.532Z,23.30
2018-06-15T16:58:09.706Z,23.20
2018-06-15T17:00:37.926Z,23.20
2018-06-15T17:03:06.018Z,23.20
2018-06-15T17:05:34.171Z,23.10
2018-06-15T17:08:02.398Z,23.10
2018-06-15T17:10:30.571Z,23.10
2018-06-15T17:12:58.807Z,23.10
2018-06-15T17:17:54.894Z,23.10
2018-06-15T17:20:23.139Z,23.10
2018-06-15T17:22:51.403Z,23.10
2018-06-15T17:25:19.578Z,23.00
2018-06-15T17:27:47.741Z,23.00
2018-06-15T17:30:15.933Z,22.90
2018-06-15T17:32:44.121Z,22.90
2018-06-15T17:35:12.327Z,22.90
2018-06-15T17:37:40.530Z,22.90
2018-06-15T17:40:08.686Z,22.80
2018-06-15T17:42:36.878Z,22.80
2018-06-15T17:45:05.384Z,22.70
2018-06-15T17:47:33.556Z,22.70
2018-06-15T17:50:01.842Z,22.70
2018-06-15T17:52:30.353Z,22.70
2018-06-15T17:54:58.517Z,22.70
2018-06-15T17:57:26.706Z,22.70
2018-06-15T17:59:54.890Z,22.60
2018-06-15T18:02:23.085Z,22.60
2018-06-15T18:04:51.254Z,22.60
2018-06-15T18:07:19.474Z,22.60
2018-06-15T18:09:47.570Z,22.50
2018-06-15T18:12:15.754Z,22.50
2018-06-15T18:14:43.914Z,22.50
2018-06-15T18:17:12.109Z,22.50
2018-06-15T18:19:40.306Z,22.40
2018-06-15T18:22:08.473Z,22.30
2018-06-15T18:24:36.650Z,22.30
2018-06-15T18:27:04.841Z,22.20
2018-06-15T18:29:33.027Z,22.20
2018-06-15T18:32:01.431Z,22.20
2018-06-15T18:34:29.606Z,22.20
2018-06-15T18:36:57.806Z,22.20
2018-06-15T18:39:25.979Z,22.20
2018-06-15T18:41:54.178Z,22.20
2018-06-15T18:44:22.343Z,22.20
2018-06-15T18:46:50.542Z,22.20
2018-06-15T18:49:18.729Z,22.10
2018-06-15T18:51:46.830Z,22.10
2018-06-15T18:54:15.115Z,22.10
2018-06-15T18:56:44.022Z,22.10
2018-06-15T18:59:12.316Z,22.10
2018-06-15T19:01:40.602Z,22.00
2018-06-15T19:04:08.769Z,22.00
2018-06-15T19:06:36.962Z,21.90
2018-06-15T19:09:07.461Z,21.90
2018-06-15T19:11:35.594Z,21.90
2018-06-15T19:14:03.769Z,21.80
2018-06-15T19:16:31.963Z,21.80
2018-06-15T19:19:00.142Z,21.70
2018-06-15T19:21:28.329Z,21.60
2018-06-15T19:23:56.523Z,21.60
2018-06-15T19:26:24.735Z,21.50
2018-06-15T19:28:52.948Z,21.50
2018-06-15T19:31:21.187Z,21.40
2018-06-15T19:33:49.371Z,21.40
2018-06-15T19:36:17.559Z,21.30
2018-06-15T19:38:45.737Z,21.30
2018-06-15T19:41:13.929Z,21.20
2018-06-15T19:43:42.102Z,21.20
2018-06-15T19:46:10.311Z,21.10
2018-06-15T19:48:38.485Z,21.10
2018-06-15T19:51:06.699Z,21.00
2018-06-15T19:53:34.853Z,21.00
2018-06-15T19:56:03.071Z,21.00
2018-06-15T20:11:47.166Z,21.00
2018-06-15T20:14:15.341Z,20.70
2018-06-15T20:16:43.538Z,20.70
2018-06-15T20:19:11.780Z,20.70
2018-06-15T20:21:39.828Z,20.60
2018-06-15T20:24:08.030Z,20.60
2018-06-15T20:26:36.194Z,20.50
2018-06-15T20:29:04.370Z,20.50
2018-06-15T20:31:32.558Z,20.40
2018-06-15T20:34:00.750Z,20.40
2018-06-15T20:36:28.938Z,20.30
2018-06-15T20:38:57.115Z,20.30
2018-06-15T20:41:25.306Z,20.30
2018-06-15T20:43:53.538Z,20.30
2018-06-15T20:46:21.677Z,20.20
2018-06-15T20:48:49.866Z,20.20
2018-06-15T20:51:18.059Z,20.10
2018-06-15T20:53:46.241Z,20.10
2018-06-15T20:56:14.426Z,20.10
2018-06-15T20:58:42.618Z,20.00
2018-06-15T21:01:10.798Z,20.00
2018-06-15T21:03:39.013Z,19.90
2018-06-15T21:06:07.249Z,19.90
2018-06-15T21:08:35.370Z,19.80
2018-06-15T21:11:03.538Z,19.80
2018-06-15T21:13:31.729Z,19.70
2018-06-15T21:15:59.918Z,19.70
2018-06-15T21:18:28.110Z,19.60
2018-06-15T21:20:56.290Z,19.60
2018-06-15T21:23:24.484Z,19.50
2018-06-15T21:25:52.670Z,19.50
2018-06-15T21:28:20.879Z,19.40
2018-06-15T21:30:49.034Z,19.40
2018-06-15T21:33:17.230Z,19.30
2018-06-15T21:35:45.522Z,19.20
2018-06-15T21:38:13.678Z,19.20
2018-06-15T21:40:41.759Z,19.20
2018-06-15T21:43:09.990Z,19.10
2018-06-15T21:45:38.262Z,19.10
2018-06-15T21:48:06.437Z,19.00
2018-06-15T21:50:34.644Z,19.10
2018-06-15T21:53:02.704Z,19.00
2018-06-15T21:55:30.793Z,18.90
2018-06-15T21:57:58.966Z,18.90
2018-06-15T22:00:27.491Z,18.90
2018-06-15T22:02:55.649Z,18.90
2018-06-15T22:05:23.831Z,18.80
2018-06-15T22:07:51.922Z,18.80
2018-06-15T22:10:19.994Z,18.70
2018-06-15T22:12:48.090Z,18.70
2018-06-15T22:15:16.166Z,18.70
2018-06-15T22:17:44.304Z,18.60
2018-06-15T22:20:12.462Z,18.60
2018-06-15T22:22:40.627Z,18.50
2018-06-15T22:25:08.706Z,18.40
2018-06-15T22:27:36.914Z,18.40
2018-06-15T22:30:05.108Z,18.30
2018-06-15T22:32:33.274Z,18.30
2018-06-15T22:35:01.455Z,18.30
2018-06-15T22:37:29.543Z,18.20
2018-06-15T22:39:57.622Z,18.20
2018-06-15T22:42:25.711Z,18.10
2018-06-15T22:47:21.793Z,18.10
2018-06-15T22:49:49.958Z,18.00
2018-06-15T22:52:18.041Z,18.00
2018-06-15T22:54:46.130Z,18.00
2018-06-15T22:57:14.212Z,18.00
2018-06-15T22:59:42.302Z,18.00
2018-06-15T23:02:10.394Z,17.90
2018-06-15T23:04:38.458Z,17.90
2018-06-15T23:09:34.538Z,17.80
2018-06-15T23:12:02.618Z,17.70
2018-06-15T23:14:30.719Z,17.70
2018-06-15T23:16:58.794Z,17.70
2018-06-15T23:19:26.888Z,17.70
2018-06-15T23:21:54.985Z,17.60
2018-06-15T23:24:23.145Z,17.60
2018-06-15T23:26:51.221Z,17.60
2018-06-15T23:29:19.317Z,17.60
2018-06-15T23:31:47.391Z,17.50
2018-06-15T23:34:15.515Z,17.50
2018-06-15T23:36:43.697Z,17.50
2018-06-15T23:39:11.902Z,17.50
2018-06-15T23:41:40.062Z,17.50
2018-06-15T23:44:08.169Z,17.40
2018-06-15T23:46:36.338Z,17.40
2018-06-15T23:49:04.750Z,17.40
2018-06-15T23:51:32.922Z,17.30
2018-06-15T23:54:01.110Z,17.30
2018-06-15T23:56:29.286Z,17.30
2018-06-15T23:58:57.495Z,17.20
